Aviation Digital Data Service (ADDS)

Output produced by METARs form (0938 UTC 07 December 2022)
found at http://www.aviationweather.gov/metar/data/
 
METAR text: RJTF 070700Z VRB01KT CAVOK 13/M02 Q1015
Conditions at: RJTF (CHOFU AIRPORT , JP) observed 0700 UTC 07 December 2022
Temperature: 13.0°C (55°F)
Dewpoint: -2.0°C (28°F) [RH = 35%]
Pressure (altimeter): 29.97 inches Hg (1015.0 mb)
Winds: variable direction winds at 1 MPH (1 knots; 0.5 m/s)
Visibility: 6 or more miles (10+ km)
Ceiling: ceiling and visibility are OK
Clouds: unknown
Weather: no significant weather observed at this time

METAR text: RJTF 070600Z VRB01KT CAVOK 14/M02 Q1014
Conditions at: RJTF (CHOFU AIRPORT , JP) observed 0600 UTC 07 December 2022
Temperature: 14.0°C (57°F)
Dewpoint: -2.0°C (28°F) [RH = 33%]
Pressure (altimeter): 29.94 inches Hg (1014.0 mb)
Winds: variable direction winds at 1 MPH (1 knots; 0.5 m/s)
Visibility: 6 or more miles (10+ km)
Ceiling: ceiling and visibility are OK
Clouds: unknown
Weather: no significant weather observed at this time

METAR text: RJTF 070500Z 10003KT 030V200 CAVOK 14/M01 Q1014
Conditions at: RJTF (CHOFU AIRPORT , JP) observed 0500 UTC 07 December 2022
Temperature: 14.0°C (57°F)
Dewpoint: -1.0°C (30°F) [RH = 36%]
Pressure (altimeter): 29.94 inches Hg (1014.0 mb)
Winds: from the E (100 degrees) at 3 MPH (3 knots; 1.5 m/s)
Visibility: 6 or more miles (10+ km)
Ceiling: ceiling and visibility are OK
Clouds: unknown
Weather: no significant weather observed at this time

METAR text: RJTF 070400Z 01003KT 300V070 CAVOK 14/M01 Q1015
Conditions at: RJTF (CHOFU AIRPORT , JP) observed 0400 UTC 07 December 2022
Temperature: 14.0°C (57°F)
Dewpoint: -1.0°C (30°F) [RH = 36%]
Pressure (altimeter): 29.97 inches Hg (1015.0 mb)
Winds: from the N (10 degrees) at 3 MPH (3 knots; 1.5 m/s)
Visibility: 6 or more miles (10+ km)
Ceiling: ceiling and visibility are OK
Clouds: unknown
Weather: no significant weather observed at this time

METAR text: RJTF 070300Z 03003KT 330V100 CAVOK 13/M01 Q1015
Conditions at: RJTF (CHOFU AIRPORT , JP) observed 0300 UTC 07 December 2022
Temperature: 13.0°C (55°F)
Dewpoint: -1.0°C (30°F) [RH = 38%]
Pressure (altimeter): 29.97 inches Hg (1015.0 mb)
Winds: from the NNE (30 degrees) at 3 MPH (3 knots; 1.5 m/s)
Visibility: 6 or more miles (10+ km)
Ceiling: ceiling and visibility are OK
Clouds: unknown
Weather: no significant weather observed at this time

METAR text: RJTF 070200Z VRB02KT CAVOK 12/M01 Q1016
Conditions at: RJTF (CHOFU AIRPORT , JP) observed 0200 UTC 07 December 2022
Temperature: 12.0°C (54°F)
Dewpoint: -1.0°C (30°F) [RH = 40%]
Pressure (altimeter): 30.00 inches Hg (1016.0 mb)
Winds: variable direction winds at 2 MPH (2 knots; 1.0 m/s)
Visibility: 6 or more miles (10+ km)
Ceiling: ceiling and visibility are OK
Clouds: unknown
Weather: no significant weather observed at this time

METAR text: RJTF 070100Z 35006KT 330V030 9999 FEW035 11/02 Q1016
Conditions at: RJTF (CHOFU AIRPORT , JP) observed 0100 UTC 07 December 2022
Temperature: 11.0°C (52°F)
Dewpoint: 2.0°C (36°F) [RH = 54%]
Pressure (altimeter): 30.00 inches Hg (1016.0 mb)
Winds: from the N (350 degrees) at 7 MPH (6 knots; 3.1 m/s)
Visibility: 6 or more miles (10+ km)
Ceiling: at least 12,000 feet AGL
Clouds: few clouds at 3500 feet AGL
Weather: no significant weather observed at this time

METAR text: RJTF 070000Z VRB02KT 9999 FEW015 07/03 Q1017
Conditions at: RJTF (CHOFU AIRPORT , JP) observed 0000 UTC 07 December 2022
Temperature: 7.0°C (45°F)
Dewpoint: 3.0°C (37°F) [RH = 76%]
Pressure (altimeter): 30.03 inches Hg (1017.0 mb)
Winds: variable direction winds at 2 MPH (2 knots; 1.0 m/s)
Visibility: 6 or more miles (10+ km)
Ceiling: at least 12,000 feet AGL
Clouds: few clouds at 1500 feet AGL
Weather: no significant weather observed at this time

METAR text: RJTF 062330Z VRB01KT 9999 FEW012 06/04 Q1017
Conditions at: RJTF (CHOFU AIRPORT , JP) observed 2330 UTC 06 December 2022
Temperature: 6.0°C (43°F)
Dewpoint: 4.0°C (39°F) [RH = 87%]
Pressure (altimeter): 30.03 inches Hg (1017.0 mb)
Winds: variable direction winds at 1 MPH (1 knots; 0.5 m/s)
Visibility: 6 or more miles (10+ km)
Ceiling: at least 12,000 feet AGL
Clouds: few clouds at 1200 feet AGL
Weather: no significant weather observed at this time

METAR text: RJTF 060700Z 07003KT 030V090 9999 FEW015 BKN020 09/05 Q1012
Conditions at: RJTF (CHOFU AIRPORT , JP) observed 0700 UTC 06 December 2022
Temperature: 9.0°C (48°F)
Dewpoint: 5.0°C (41°F) [RH = 76%]
Pressure (altimeter): 29.88 inches Hg (1012.0 mb)
Winds: from the ENE (70 degrees) at 3 MPH (3 knots; 1.5 m/s)
Visibility: 6 or more miles (10+ km)
Ceiling: 2000 feet AGL
Clouds: few clouds at 1500 feet AGL
broken clouds at 2000 feet AGL
Weather: no significant weather observed at this time

METAR text: RJTF 060600Z 06004KT 9999 FEW015 BKN020 09/06 Q1012
Conditions at: RJTF (CHOFU AIRPORT , JP) observed 0600 UTC 06 December 2022
Temperature: 9.0°C (48°F)
Dewpoint: 6.0°C (43°F) [RH = 81%]
Pressure (altimeter): 29.88 inches Hg (1012.0 mb)
Winds: from the ENE (60 degrees) at 5 MPH (4 knots; 2.1 m/s)
Visibility: 6 or more miles (10+ km)
Ceiling: 2000 feet AGL
Clouds: few clouds at 1500 feet AGL
broken clouds at 2000 feet AGL
Weather: no significant weather observed at this time

METAR text: RJTF 060500Z 03004KT 340V080 9999 FEW015 BKN020 BKN050 09/05 Q1012
Conditions at: RJTF (CHOFU AIRPORT , JP) observed 0500 UTC 06 December 2022
Temperature: 9.0°C (48°F)
Dewpoint: 5.0°C (41°F) [RH = 76%]
Pressure (altimeter): 29.88 inches Hg (1012.0 mb)
Winds: from the NNE (30 degrees) at 5 MPH (4 knots; 2.1 m/s)
Visibility: 6 or more miles (10+ km)
Ceiling: 2000 feet AGL
Clouds: few clouds at 1500 feet AGL
broken clouds at 2000 feet AGL
broken clouds at 5000 feet AGL
Weather: no significant weather observed at this time

METAR text: RJTF 060400Z 36005KT 330V050 9999 FEW008 SCT015 BKN030 09/05 Q1013
Conditions at: RJTF (CHOFU AIRPORT , JP) observed 0400 UTC 06 December 2022
Temperature: 9.0°C (48°F)
Dewpoint: 5.0°C (41°F) [RH = 76%]
Pressure (altimeter): 29.91 inches Hg (1013.0 mb)
Winds: from the N (360 degrees) at 6 MPH (5 knots; 2.6 m/s)
Visibility: 6 or more miles (10+ km)
Ceiling: 3000 feet AGL
Clouds: few clouds at 800 feet AGL
scattered clouds at 1500 feet AGL
broken clouds at 3000 feet AGL
Weather: no significant weather observed at this time

METAR text: RJTF 060300Z 35005KT 310V020 7000 -RA FEW008 SCT012 BKN030 08/06 Q1014
Conditions at: RJTF (CHOFU AIRPORT , JP) observed 0300 UTC 06 December 2022
Temperature: 8.0°C (46°F)
Dewpoint: 6.0°C (43°F) [RH = 87%]
Pressure (altimeter): 29.94 inches Hg (1014.0 mb)
Winds: from the N (350 degrees) at 6 MPH (5 knots; 2.6 m/s)
Visibility: 4 miles ( 7 km)
Ceiling: 3000 feet AGL
Clouds: few clouds at 800 feet AGL
scattered clouds at 1200 feet AGL
broken clouds at 3000 feet AGL
Weather: -RA  (light rain)

METAR text: RJTF 060200Z 34005KT 5000 -RA BR FEW003 SCT012 BKN030 07/06 Q1015
Conditions at: RJTF (CHOFU AIRPORT , JP) observed 0200 UTC 06 December 2022
Temperature: 7.0°C (45°F)
Dewpoint: 6.0°C (43°F) [RH = 93%]
Pressure (altimeter): 29.97 inches Hg (1015.0 mb)
Winds: from the NNW (340 degrees) at 6 MPH (5 knots; 2.6 m/s)
Visibility: 3 miles ( 5 km)
Ceiling: 3000 feet AGL
Clouds: few clouds at 300 feet AGL
scattered clouds at 1200 feet AGL
broken clouds at 3000 feet AGL
Weather: -RA BR  (light rain, mist)

METAR text: RJTF 060112Z 34005KT 4000 -RA BR FEW003 SCT004 BKN025 06/06 Q1016 RMK 1ST003 3ST004 5SC025 A3001
Conditions at: RJTF (CHOFU AIRPORT , JP) observed 0112 UTC 06 December 2022
Temperature: 6.0°C (43°F)
Dewpoint: 6.0°C (43°F) [RH = 100%]
Pressure (altimeter): 30.00 inches Hg (1016.0 mb)
Winds: from the NNW (340 degrees) at 6 MPH (5 knots; 2.6 m/s)
Visibility: 2.49 miles (4.01 km)
Ceiling: 2500 feet AGL
Clouds: few clouds at 300 feet AGL
scattered clouds at 400 feet AGL
broken clouds at 2500 feet AGL
Weather: -RA BR  (light rain, mist)

METAR text: RJTF 060100Z 34006KT 5000 -RA BR FEW004 BKN020 BKN040 06/05 Q1016
Conditions at: RJTF (CHOFU AIRPORT , JP) observed 0100 UTC 06 December 2022
Temperature: 6.0°C (43°F)
Dewpoint: 5.0°C (41°F) [RH = 93%]
Pressure (altimeter): 30.00 inches Hg (1016.0 mb)
Winds: from the NNW (340 degrees) at 7 MPH (6 knots; 3.1 m/s)
Visibility: 3 miles ( 5 km)
Ceiling: 2000 feet AGL
Clouds: few clouds at 400 feet AGL
broken clouds at 2000 feet AGL
broken clouds at 4000 feet AGL
Weather: -RA BR  (light rain, mist)

METAR text: RJTF 060000Z 35003KT 5000 -RA BR FEW004 SCT008 BKN020 06/05 Q1016
Conditions at: RJTF (CHOFU AIRPORT , JP) observed 0000 UTC 06 December 2022
Temperature: 6.0°C (43°F)
Dewpoint: 5.0°C (41°F) [RH = 93%]
Pressure (altimeter): 30.00 inches Hg (1016.0 mb)
Winds: from the N (350 degrees) at 3 MPH (3 knots; 1.5 m/s)
Visibility: 3 miles ( 5 km)
Ceiling: 2000 feet AGL
Clouds: few clouds at 400 feet AGL
scattered clouds at 800 feet AGL
broken clouds at 2000 feet AGL
Weather: -RA BR  (light rain, mist)

METAR text: RJTF 052345Z 36005KT 290V060 5000 -RA BR FEW004 SCT008 BKN020 05/05 Q1016 RMK 2ST004 3ST008 5SC020 A3003
Conditions at: RJTF (CHOFU AIRPORT , JP) observed 2345 UTC 05 December 2022
Temperature: 5.0°C (41°F)
Dewpoint: 5.0°C (41°F) [RH = 100%]
Pressure (altimeter): 30.00 inches Hg (1016.0 mb)
Winds: from the N (360 degrees) at 6 MPH (5 knots; 2.6 m/s)
Visibility: 3 miles ( 5 km)
Ceiling: 2000 feet AGL
Clouds: few clouds at 400 feet AGL
scattered clouds at 800 feet AGL
broken clouds at 2000 feet AGL
Weather: -RA BR  (light rain, mist)

METAR text: RJTF 052330Z 34005KT 300V030 3500 -RA BR FEW004 SCT006 BKN020 05/05 Q1016
Conditions at: RJTF (CHOFU AIRPORT , JP) observed 2330 UTC 05 December 2022
Temperature: 5.0°C (41°F)
Dewpoint: 5.0°C (41°F) [RH = 100%]
Pressure (altimeter): 30.00 inches Hg (1016.0 mb)
Winds: from the NNW (340 degrees) at 6 MPH (5 knots; 2.6 m/s)
Visibility: 2.17 miles (3.49 km)
Ceiling: 2000 feet AGL
Clouds: few clouds at 400 feet AGL
scattered clouds at 600 feet AGL
broken clouds at 2000 feet AGL
Weather: -RA BR  (light rain, mist)

METAR text: RJTF 052310Z 36004KT 300V040 4000 SCT004 SCT006 BKN020 05/05 Q1016 RMK 3ST004 4ST006 5SC020 A3003
Conditions at: RJTF (CHOFU AIRPORT , JP) observed 2310 UTC 05 December 2022
Temperature: 5.0°C (41°F)
Dewpoint: 5.0°C (41°F) [RH = 100%]
Pressure (altimeter): 30.00 inches Hg (1016.0 mb)
Winds: from the N (360 degrees) at 5 MPH (4 knots; 2.1 m/s)
Visibility: 2.49 miles (4.01 km)
Ceiling: 2000 feet AGL
Clouds: scattered clouds at 400 feet AGL
scattered clouds at 600 feet AGL
broken clouds at 2000 feet AGL
Weather: no significant weather observed at this time